Time;durP1;ratioP1;P1;durP2;ratioP2;P2;SDS_P1;SDS_P2;PMS_P1;PMS_P2;Temp;Humidity;BMP_temperature;BMP_pressure;BME280_temperature;BME280_humidity;BME280_pressure;Samples;Min_cycle;Max_cycle;Signal;HPM_P1;HPM_P2
2021/12/24 00:01:50;;;;;;;71.80;35.05;;;;;;;;;;5098915;27;93981;-75
2021/12/24 00:04:17;;;;;;;83.32;36.80;;;;;;;;;;5099127;27;92308;-75
2021/12/24 00:06:44;;;;;;;79.03;35.83;;;;;;;;;;5099014;27;92509;-75
2021/12/24 00:09:20;;;;;;;86.88;35.03;;;;;;;;;;5098771;27;93553;-75
2021/12/24 00:11:46;;;;;;;91.85;36.00;;;;;;;;;;5098643;27;94745;-74
2021/12/24 00:14:13;;;;;;;74.93;32.88;;;;;;;;;;5098910;27;93290;-75
2021/12/24 00:16:44;;;;;;;82.15;35.75;;;;;;;;;;5098852;27;93561;-75
2021/12/24 00:19:25;;;;;;;90.93;35.88;;;;;;;;;;5091029;27;92464;-76
2021/12/24 00:22:22;;;;;;;80.78;35.08;;;;;;;;;;5079646;27;95109;-75
2021/12/24 00:35:47;;;;;;;50.05;26.55;;;;;;;;;;5078047;27;93416;-75
2021/12/24 00:38:13;;;;;;;57.47;28.92;;;;;;;;;;5077347;27;93490;-76
2021/12/24 00:40:43;;;;;;;56.53;28.65;;;;;;;;;;5059814;27;91625;-75
2021/12/24 00:43:12;;;;;;;62.05;28.58;;;;;;;;;;5059313;27;95630;-75
2021/12/24 00:45:40;;;;;;;62.25;30.13;;;;;;;;;;5080709;27;92978;-75
2021/12/24 00:48:07;;;;;;;56.78;29.77;;;;;;;;;;5057819;27;95862;-75
2021/12/24 00:50:49;;;;;;;72.88;31.40;;;;;;;;;;5077452;27;93667;-75
2021/12/24 00:56:01;;;;;;;54.80;28.10;;;;;;;;;;5058148;27;95149;-75
2021/12/24 00:58:28;;;;;;;55.92;28.40;;;;;;;;;;5077211;27;94365;-75
2021/12/24 01:00:54;;;;;;;66.15;30.80;;;;;;;;;;5042381;27;92255;-75
2021/12/24 01:03:23;;;;;;;54.60;26.73;;;;;;;;;;5059244;27;96215;-75
2021/12/24 01:05:49;;;;;;;64.93;30.83;;;;;;;;;;5077940;27;92425;-75
2021/12/24 01:08:16;;;;;;;68.97;30.63;;;;;;;;;;5080067;27;92237;-76
2021/12/24 01:10:45;;;;;;;61.53;29.70;;;;;;;;;;5077117;27;94137;-76
2021/12/24 01:13:12;;;;;;;63.47;32.42;;;;;;;;;;5057489;27;94672;-75
2021/12/24 01:15:50;;;;;;;72.05;32.00;;;;;;;;;;5077326;27;96023;-76
2021/12/24 01:18:27;;;;;;;71.85;30.83;;;;;;;;;;5058949;27;95544;-76
2021/12/24 01:23:43;;;;;;;65.80;30.83;;;;;;;;;;5055539;27;96699;-75
2021/12/24 01:26:15;;;;;;;61.35;28.45;;;;;;;;;;5056400;27;93793;-75
2021/12/24 01:45:12;;;;;;;58.08;27.63;;;;;;;;;;5038485;27;95066;-75
2021/12/24 01:47:39;;;;;;;73.43;31.75;;;;;;;;;;5056295;27;93359;-75
2021/12/24 01:50:07;;;;;;;74.22;32.53;;;;;;;;;;5037713;27;92501;-75
2021/12/24 01:52:34;;;;;;;72.72;30.55;;;;;;;;;;5059390;27;93168;-75
2021/12/24 01:55:00;;;;;;;79.00;32.20;;;;;;;;;;5038079;27;93201;-74
2021/12/24 01:57:28;;;;;;;85.03;32.60;;;;;;;;;;5038525;27;95304;-75
2021/12/24 01:59:54;;;;;;;85.70;32.55;;;;;;;;;;5037898;27;95517;-75
2021/12/24 02:02:21;;;;;;;88.90;33.95;;;;;;;;;;5038378;27;93811;-75
2021/12/24 02:04:47;;;;;;;79.25;32.40;;;;;;;;;;5054290;27;94680;-75
2021/12/24 02:07:14;;;;;;;84.18;34.40;;;;;;;;;;5057569;27;93794;-75
2021/12/24 02:09:40;;;;;;;87.18;34.47;;;;;;;;;;5059668;27;92392;-75
2021/12/24 02:12:09;;;;;;;90.43;35.17;;;;;;;;;;5041179;27;96016;-75
2021/12/24 02:14:38;;;;;;;113.10;38.60;;;;;;;;;;5044526;27;95478;-75
2021/12/24 02:17:25;;;;;;;91.40;34.50;;;;;;;;;;5041172;27;95457;-75
2021/12/24 02:28:25;;;;;;;97.80;38.13;;;;;;;;;;5082112;27;96052;-75
2021/12/24 02:30:52;;;;;;;74.25;30.50;;;;;;;;;;5099072;27;94571;-76
2021/12/24 02:33:18;;;;;;;92.45;35.72;;;;;;;;;;5081989;27;98286;-76
2021/12/24 02:35:46;;;;;;;84.70;35.03;;;;;;;;;;5100380;27;92661;-75
2021/12/24 02:38:13;;;;;;;85.60;34.72;;;;;;;;;;5103268;27;92368;-76
2021/12/24 02:40:39;;;;;;;70.95;32.38;;;;;;;;;;5100366;27;93725;-75
2021/12/24 02:43:09;;;;;;;80.57;33.65;;;;;;;;;;5082010;27;92342;-75
2021/12/24 02:45:38;;;;;;;57.28;26.42;;;;;;;;;;5100398;27;93438;-75
2021/12/24 02:56:03;;;;;;;56.97;27.17;;;;;;;;;;5098223;27;96077;-75
2021/12/24 02:58:41;;;;;;;64.72;27.67;;;;;;;;;;5081818;27;93782;-77
2021/12/24 03:01:08;;;;;;;62.05;26.23;;;;;;;;;;5102671;27;92863;-75
2021/12/24 03:03:35;;;;;;;55.22;24.38;;;;;;;;;;5081551;27;93840;-75
2021/12/24 03:06:02;;;;;;;50.95;23.38;;;;;;;;;;5100062;27;92836;-76
2021/12/24 03:08:28;;;;;;;60.40;23.13;;;;;;;;;;5099836;27;93247;-76
2021/12/24 03:10:57;;;;;;;58.35;24.25;;;;;;;;;;5099813;27;92194;-75
2021/12/24 03:13:23;;;;;;;57.60;22.92;;;;;;;;;;5100006;27;93367;-76
2021/12/24 03:15:51;;;;;;;53.78;21.33;;;;;;;;;;5081223;27;95826;-75
2021/12/24 03:18:24;;;;;;;46.60;20.75;;;;;;;;;;5080641;27;92477;-74
2021/12/24 03:20:58;;;;;;;50.28;20.75;;;;;;;;;;5038994;27;95573;-76
2021/12/24 03:26:02;;;;;;;37.05;18.85;;;;;;;;;;5040137;27;96165;-76
2021/12/24 03:28:29;;;;;;;44.38;19.17;;;;;;;;;;5040435;27;94234;-75
2021/12/24 03:30:55;;;;;;;49.35;19.10;;;;;;;;;;5057941;27;92318;-76
2021/12/24 03:33:22;;;;;;;43.97;20.00;;;;;;;;;;5040184;27;95748;-75
2021/12/24 03:35:48;;;;;;;43.22;18.77;;;;;;;;;;5039813;27;95682;-76
2021/12/24 03:38:15;;;;;;;43.35;18.55;;;;;;;;;;5040484;27;92972;-75
2021/12/24 03:40:42;;;;;;;37.60;16.10;;;;;;;;;;5058156;27;92301;-75
2021/12/24 03:43:09;;;;;;;39.80;17.92;;;;;;;;;;5040101;27;95660;-74
2021/12/24 03:45:45;;;;;;;53.13;19.80;;;;;;;;;;5059746;27;94754;-75
2021/12/24 03:48:20;;;;;;;33.47;16.77;;;;;;;;;;5058272;27;92813;-75
2021/12/24 03:51:02;;;;;;;45.80;19.35;;;;;;;;;;5039918;27;92780;-75
2021/12/24 03:56:15;;;;;;;41.33;18.35;;;;;;;;;;5039610;27;96008;-75
2021/12/24 03:58:43;;;;;;;41.33;18.35;;;;;;;;;;5040015;27;92288;-75
2021/12/24 04:01:35;;;;;;;40.38;16.38;;;;;;;;;;5057459;27;94249;-76
2021/12/24 04:04:20;;;;;;;43.55;18.15;;;;;;;;;;5040280;27;91879;-74
2021/12/24 04:07:06;;;;;;;41.35;18.88;;;;;;;;;;5059973;27;92200;-74
2021/12/24 04:10:02;;;;;;;46.38;17.67;;;;;;;;;;5057222;27;92589;-75
2021/12/24 04:13:07;;;;;;;45.58;18.45;;;;;;;;;;5012988;28;94924;-74
2021/12/24 04:15:34;;;;;;;42.38;18.77;;;;;;;;;;4998456;28;98144;-74
2021/12/24 04:18:01;;;;;;;49.08;18.42;;;;;;;;;;5035113;27;93909;-75
2021/12/24 04:25:58;;;;;;;41.40;17.00;;;;;;;;;;5080215;27;95965;-74
2021/12/24 04:28:24;;;;;;;43.00;18.67;;;;;;;;;;5080328;27;92371;-75
2021/12/24 04:30:52;;;;;;;32.05;15.23;;;;;;;;;;5081858;27;95064;-75
2021/12/24 04:33:29;;;;;;;34.22;16.00;;;;;;;;;;5063220;27;92917;-74
2021/12/24 05:03:34;;;;;;;36.00;12.77;;;;;;;;;;5079914;27;92402;-75
2021/12/24 05:06:26;;;;;;;36.30;12.80;;;;;;;;;;5095929;27;94696;-75
2021/12/24 05:08:57;;;;;;;37.67;12.43;;;;;;;;;;5078387;27;95751;-74
2021/12/24 05:11:24;;;;;;;28.00;11.15;;;;;;;;;;5079611;27;93985;-75
2021/12/24 05:13:52;;;;;;;37.70;11.70;;;;;;;;;;5079183;27;94426;-75
2021/12/24 05:16:50;;;;;;;27.48;11.65;;;;;;;;;;5079726;27;97235;-76
2021/12/24 05:22:30;;;;;;;27.88;10.40;;;;;;;;;;5074374;27;92616;-74
2021/12/24 05:25:02;;;;;;;19.95;9.32;;;;;;;;;;5059524;27;92490;-75
2021/12/24 05:27:28;;;;;;;31.35;10.25;;;;;;;;;;5059662;27;93598;-75
2021/12/24 05:29:55;;;;;;;19.80;9.82;;;;;;;;;;5057642;27;94165;-75
2021/12/24 05:32:21;;;;;;;20.98;9.55;;;;;;;;;;5057741;27;94902;-74
2021/12/24 05:34:48;;;;;;;26.25;9.48;;;;;;;;;;5042517;27;98125;-74
2021/12/24 05:37:14;;;;;;;23.75;9.50;;;;;;;;;;5059257;27;95162;-75
2021/12/24 05:39:40;;;;;;;26.98;9.63;;;;;;;;;;5059514;27;92437;-75
2021/12/24 05:42:07;;;;;;;26.63;9.35;;;;;;;;;;5063394;27;95733;-74
2021/12/24 05:44:33;;;;;;;19.98;8.80;;;;;;;;;;5046169;27;92251;-74
2021/12/24 05:47:05;;;;;;;;;;;;;;;;;;5063497;27;96351;-75
2021/12/24 05:49:37;;;;;;;;;;;;;;;;;;5063678;27;94321;-74
2021/12/24 05:52:27;;;;;;;23.73;8.30;;;;;;;;;;5080448;27;92340;-75
2021/12/24 05:55:00;;;;;;;32.58;8.77;;;;;;;;;;5062808;27;95169;-74
2021/12/24 05:57:29;;;;;;;25.42;8.52;;;;;;;;;;5061247;27;98210;-75
2021/12/24 05:59:55;;;;;;;24.45;8.40;;;;;;;;;;5062747;27;92435;-75
2021/12/24 06:02:23;;;;;;;18.02;8.35;;;;;;;;;;5062436;27;95559;-75
2021/12/24 06:04:49;;;;;;;31.60;7.97;;;;;;;;;;5083845;27;93602;-75
2021/12/24 06:07:16;;;;;;;25.23;8.48;;;;;;;;;;5081243;27;93540;-75
2021/12/24 06:09:42;;;;;;;20.02;8.10;;;;;;;;;;5081047;27;93649;-75
2021/12/24 06:12:09;;;;;;;23.48;8.13;;;;;;;;;;5080653;27;92307;-75
2021/12/24 06:14:35;;;;;;;28.88;7.82;;;;;;;;;;5081317;27;93567;-76
2021/12/24 06:17:04;;;;;;;19.85;7.55;;;;;;;;;;5080713;27;94074;-75
2021/12/24 06:19:32;;;;;;;30.03;8.53;;;;;;;;;;5090680;27;92401;-75
2021/12/24 06:21:59;;;;;;;22.17;7.75;;;;;;;;;;5100098;27;94829;-75
2021/12/24 06:24:25;;;;;;;27.50;7.28;;;;;;;;;;5104478;27;92812;-76
2021/12/24 06:26:52;;;;;;;22.88;7.57;;;;;;;;;;5101343;27;92727;-75
2021/12/24 06:29:18;;;;;;;21.08;7.10;;;;;;;;;;5100996;27;93949;-77
2021/12/24 06:31:44;;;;;;;24.85;7.55;;;;;;;;;;5101481;27;92707;-75
2021/12/24 06:34:11;;;;;;;31.15;7.90;;;;;;;;;;5101421;27;92488;-75
2021/12/24 06:36:42;;;;;;;26.23;7.68;;;;;;;;;;5100810;27;93375;-75
2021/12/24 06:39:08;;;;;;;26.65;7.80;;;;;;;;;;5101785;27;91655;-75
2021/12/24 06:41:35;;;;;;;22.75;7.82;;;;;;;;;;5101053;27;94774;-74
2021/12/24 06:44:04;;;;;;;25.90;6.45;;;;;;;;;;5100196;27;93261;-75
2021/12/24 06:46:30;;;;;;;23.88;7.10;;;;;;;;;;5084655;27;94739;-75
2021/12/24 06:48:57;;;;;;;22.27;8.10;;;;;;;;;;5100939;27;93675;-75
2021/12/24 06:51:23;;;;;;;26.30;7.32;;;;;;;;;;5100893;27;92348;-75
2021/12/24 06:53:50;;;;;;;29.38;7.03;;;;;;;;;;5100045;27;93447;-75
2021/12/24 06:56:18;;;;;;;24.77;8.15;;;;;;;;;;5082040;27;96212;-76
2021/12/24 06:58:46;;;;;;;27.08;9.05;;;;;;;;;;5082544;27;92354;-75
2021/12/24 07:01:16;;;;;;;32.53;8.38;;;;;;;;;;5082133;27;95652;-75
2021/12/24 07:03:42;;;;;;;28.60;7.72;;;;;;;;;;5082595;27;95447;-75
2021/12/24 07:06:09;;;;;;;33.97;8.73;;;;;;;;;;5100785;27;92240;-75
2021/12/24 07:08:36;;;;;;;26.00;8.18;;;;;;;;;;5103852;27;93431;-75
2021/12/24 07:11:02;;;;;;;29.90;8.88;;;;;;;;;;5098857;27;94739;-76
2021/12/24 07:13:29;;;;;;;23.63;8.55;;;;;;;;;;5100261;27;95828;-75
2021/12/24 07:15:55;;;;;;;38.83;8.95;;;;;;;;;;5100462;27;93913;-75
2021/12/24 07:18:22;;;;;;;30.33;9.55;;;;;;;;;;5100484;27;92257;-76
2021/12/24 07:20:48;;;;;;;22.23;9.18;;;;;;;;;;5059713;27;93047;-76
2021/12/24 07:23:14;;;;;;;32.42;9.55;;;;;;;;;;5059337;27;93611;-76
2021/12/24 07:25:41;;;;;;;31.17;9.07;;;;;;;;;;5058986;27;92346;-76
2021/12/24 07:28:07;;;;;;;28.67;9.20;;;;;;;;;;5059912;27;93746;-76
2021/12/24 07:30:34;;;;;;;34.00;9.48;;;;;;;;;;5062314;27;94041;-76
2021/12/24 07:33:00;;;;;;;32.90;9.48;;;;;;;;;;5059199;27;93319;-76
2021/12/24 07:35:27;;;;;;;31.90;10.50;;;;;;;;;;5057345;27;96045;-77
2021/12/24 07:37:53;;;;;;;25.77;10.20;;;;;;;;;;5040552;27;92293;-76
2021/12/24 07:40:19;;;;;;;31.20;10.02;;;;;;;;;;5058119;27;93642;-75
2021/12/24 07:42:47;;;;;;;27.52;10.57;;;;;;;;;;5058153;27;93658;-76
2021/12/24 07:45:16;;;;;;;38.65;9.57;;;;;;;;;;5067526;27;92440;-76
2021/12/24 07:47:42;;;;;;;31.00;10.30;;;;;;;;;;5079283;27;92745;-76
2021/12/24 07:51:57;;;;;;;29.95;11.63;;;;;;;;;;5078653;27;93276;-76
2021/12/24 07:53:05;;;;;;;25.40;10.13;;;;;;;;;;5082099;27;91409;-76
2021/12/24 07:55:31;;;;;;;43.85;11.38;;;;;;;;;;5078451;27;93149;-76
2021/12/24 07:57:59;;;;;;;42.45;11.18;;;;;;;;;;5069189;27;92269;-77
2021/12/24 08:00:27;;;;;;;31.70;10.40;;;;;;;;;;5056231;27;94829;-76
2021/12/24 08:02:54;;;;;;;25.35;8.88;;;;;;;;;;5057879;27;93065;-76
2021/12/24 08:05:25;;;;;;;39.17;9.85;;;;;;;;;;5057863;27;92289;-74
2021/12/24 08:07:52;;;;;;;37.03;9.73;;;;;;;;;;5058523;27;92746;-78
2021/12/24 08:10:20;;;;;;;31.00;9.05;;;;;;;;;;5040277;27;94498;-78
2021/12/24 08:12:46;;;;;;;21.60;8.10;;;;;;;;;;5029465;28;92376;-75
2021/12/24 08:15:13;;;;;;;29.33;8.20;;;;;;;;;;5021164;28;92752;-76
2021/12/24 08:17:47;;;;;;;27.33;8.27;;;;;;;;;;5018596;28;91649;-80
2021/12/24 08:20:15;;;;;;;26.60;8.63;;;;;;;;;;5018185;28;92214;-79
2021/12/24 08:22:42;;;;;;;25.60;8.02;;;;;;;;;;5018546;28;92965;-77
2021/12/24 08:25:10;;;;;;;28.30;7.97;;;;;;;;;;5016143;28;94665;-81
2021/12/24 08:27:38;;;;;;;27.30;7.60;;;;;;;;;;5016511;28;96843;-74
2021/12/24 08:30:05;;;;;;;27.05;8.45;;;;;;;;;;5017655;28;93498;-75
2021/12/24 08:32:36;;;;;;;29.10;8.60;;;;;;;;;;5017267;28;92362;-75
2021/12/24 08:35:08;;;;;;;30.77;8.82;;;;;;;;;;5019891;28;93404;-75
2021/12/24 08:37:34;;;;;;;33.80;8.65;;;;;;;;;;5017460;28;92370;-75
2021/12/24 08:40:00;;;;;;;38.63;9.68;;;;;;;;;;5017751;28;92491;-75
2021/12/24 08:42:27;;;;;;;30.83;9.15;;;;;;;;;;5018059;28;92862;-75
2021/12/24 08:44:53;;;;;;;35.00;9.15;;;;;;;;;;5025447;27;92414;-76
2021/12/24 08:47:19;;;;;;;32.38;9.60;;;;;;;;;;5025961;27;92497;-75
2021/12/24 08:49:46;;;;;;;33.60;9.18;;;;;;;;;;5020969;28;95595;-76
2021/12/24 08:52:12;;;;;;;33.30;8.77;;;;;;;;;;5017197;28;92570;-74
2021/12/24 08:54:38;;;;;;;30.13;9.57;;;;;;;;;;5017606;28;92509;-74
2021/12/24 08:57:05;;;;;;;34.15;9.70;;;;;;;;;;5025277;27;94074;-75
2021/12/24 08:59:31;;;;;;;32.33;9.75;;;;;;;;;;5016832;28;93368;-74
2021/12/24 09:01:58;;;;;;;30.05;9.82;;;;;;;;;;5035245;28;93615;-75
2021/12/24 09:04:25;;;;;;;44.90;10.65;;;;;;;;;;5034185;28;92356;-78
2021/12/24 09:06:51;;;;;;;33.83;10.15;;;;;;;;;;5016907;28;93465;-77
2021/12/24 09:09:18;;;;;;;32.47;10.23;;;;;;;;;;5023922;27;93620;-76
2021/12/24 09:11:47;;;;;;;29.05;9.55;;;;;;;;;;5029046;28;92360;-82
2021/12/24 09:14:18;;;;;;;24.77;8.38;;;;;;;;;;5018691;27;94899;-79
2021/12/24 09:16:47;;;;;;;41.08;8.90;;;;;;;;;;5024954;28;93106;-80
2021/12/24 09:19:19;;;;;;;29.30;7.85;;;;;;;;;;5050414;27;92297;-77
2021/12/24 09:21:45;;;;;;;33.92;8.40;;;;;;;;;;5037832;28;93141;-79
2021/12/24 09:24:12;;;;;;;25.50;7.43;;;;;;;;;;5022966;28;92699;-73
2021/12/24 09:26:39;;;;;;;33.80;8.05;;;;;;;;;;5028337;28;93091;-76
2021/12/24 09:29:13;;;;;;;30.42;7.15;;;;;;;;;;5036950;28;93223;-77
2021/12/24 09:31:40;;;;;;;30.45;9.00;;;;;;;;;;5015077;28;91578;-76
2021/12/24 09:34:06;;;;;;;41.60;7.97;;;;;;;;;;5015691;28;93800;-76
2021/12/24 09:36:33;;;;;;;32.22;9.15;;;;;;;;;;5017066;28;92174;-74
2021/12/24 09:39:02;;;;;;;24.50;8.20;;;;;;;;;;5015055;28;94634;-74
2021/12/24 09:41:28;;;;;;;28.60;9.48;;;;;;;;;;5019401;28;95930;-73
2021/12/24 09:43:58;;;;;;;32.45;9.88;;;;;;;;;;5030904;28;92445;-74
2021/12/24 09:46:25;;;;;;;34.53;10.00;;;;;;;;;;5036792;28;93083;-73
2021/12/24 09:48:51;;;;;;;32.78;9.75;;;;;;;;;;5030372;28;92242;-72
2021/12/24 09:51:18;;;;;;;19.08;8.25;;;;;;;;;;5016454;28;92332;-72
2021/12/24 09:53:44;;;;;;;27.05;9.27;;;;;;;;;;5016197;28;93014;-73
2021/12/24 09:56:11;;;;;;;33.63;9.93;;;;;;;;;;5016792;28;92334;-73
2021/12/24 09:58:37;;;;;;;31.90;10.30;;;;;;;;;;5016300;28;92417;-74
2021/12/24 10:01:03;;;;;;;36.88;9.80;;;;;;;;;;5015740;28;93476;-75
2021/12/24 10:03:35;;;;;;;25.30;9.77;;;;;;;;;;5017737;28;95678;-72
2021/12/24 10:06:02;;;;;;;27.85;10.18;;;;;;;;;;5016451;28;95814;-75
2021/12/24 10:08:29;;;;;;;30.23;9.85;;;;;;;;;;5014908;28;93535;-73
2021/12/24 10:11:02;;;;;;;32.15;9.93;;;;;;;;;;5016426;28;92284;-72
2021/12/24 10:13:41;;;;;;;32.00;10.15;;;;;;;;;;5041240;27;93037;-72
2021/12/24 10:16:10;;;;;;;26.20;9.13;;;;;;;;;;5055931;27;93438;-74
2021/12/24 10:18:38;;;;;;;32.88;9.68;;;;;;;;;;5056645;27;92267;-72
2021/12/24 10:21:06;;;;;;;35.95;10.02;;;;;;;;;;5064377;27;93529;-72
2021/12/24 10:23:39;;;;;;;26.00;10.20;;;;;;;;;;5064212;27;93690;-72
2021/12/24 10:26:16;;;;;;;41.30;10.40;;;;;;;;;;5058827;27;92269;-73
2021/12/24 10:28:50;;;;;;;30.27;9.30;;;;;;;;;;5056308;27;96000;-74
2021/12/24 10:31:17;;;;;;;30.80;10.25;;;;;;;;;;5059853;27;92741;-74
2021/12/24 10:34:02;;;;;;;25.33;9.15;;;;;;;;;;5059393;27;93473;-76
2021/12/24 10:36:29;;;;;;;25.77;9.35;;;;;;;;;;5041526;27;95595;-75
2021/12/24 10:38:56;;;;;;;33.25;9.88;;;;;;;;;;5059856;27;92367;-75
2021/12/24 10:41:26;;;;;;;35.28;10.25;;;;;;;;;;5059873;27;93043;-76
2021/12/24 10:44:12;;;;;;;28.35;10.05;;;;;;;;;;5058909;27;93068;-80
2021/12/24 10:46:39;;;;;;;24.70;9.30;;;;;;;;;;5062570;27;91570;-74
2021/12/24 10:49:15;;;;;;;32.58;10.32;;;;;;;;;;5059627;27;93091;-74
2021/12/24 10:51:54;;;;;;;27.35;10.10;;;;;;;;;;5059055;27;92258;-76
2021/12/24 10:54:24;;;;;;;30.90;11.73;;;;;;;;;;5057048;27;94639;-74
2021/12/24 10:56:53;;;;;;;33.80;11.73;;;;;;;;;;5058365;27;93562;-78
2021/12/24 10:59:38;;;;;;;32.20;11.70;;;;;;;;;;5041241;27;92239;-74
2021/12/24 11:02:11;;;;;;;36.42;11.32;;;;;;;;;;5058982;27;93476;-75
2021/12/24 11:04:38;;;;;;;35.65;11.65;;;;;;;;;;5058281;27;93637;-77
2021/12/24 11:07:26;;;;;;;31.00;11.23;;;;;;;;;;5040854;27;92487;-77
2021/12/24 11:10:11;;;;;;;27.80;11.10;;;;;;;;;;5061502;27;93512;-76
2021/12/24 11:12:42;;;;;;;36.00;11.43;;;;;;;;;;5040397;27;92298;-77
2021/12/24 11:15:28;;;;;;;27.70;11.60;;;;;;;;;;5058585;27;92224;-75
2021/12/24 11:17:55;;;;;;;27.52;11.15;;;;;;;;;;5058532;27;93861;-74
2021/12/24 11:20:22;;;;;;;26.92;12.20;;;;;;;;;;5057214;27;94721;-75
2021/12/24 11:22:53;;;;;;;31.67;10.50;;;;;;;;;;5062812;27;96181;-76
2021/12/24 11:25:20;;;;;;;23.33;10.57;;;;;;;;;;5078985;27;93307;-76
2021/12/24 11:27:47;;;;;;;23.05;10.68;;;;;;;;;;5079463;27;92273;-75
2021/12/24 11:30:14;;;;;;;28.88;11.27;;;;;;;;;;5079121;27;92777;-76
2021/12/24 11:32:41;;;;;;;21.13;10.77;;;;;;;;;;5081794;27;93857;-74
2021/12/24 11:35:07;;;;;;;37.35;11.90;;;;;;;;;;5061165;27;92523;-75
2021/12/24 11:37:34;;;;;;;30.45;11.38;;;;;;;;;;5079343;27;92902;-76
2021/12/24 11:40:03;;;;;;;36.35;13.95;;;;;;;;;;5065202;27;92356;-75
2021/12/24 11:42:32;;;;;;;26.27;11.50;;;;;;;;;;5067480;27;92594;-73
2021/12/24 11:45:00;;;;;;;43.75;12.43;;;;;;;;;;5068801;27;96261;-73
2021/12/24 11:47:26;;;;;;;37.42;12.15;;;;;;;;;;5058273;27;92359;-73
2021/12/24 11:49:52;;;;;;;38.80;12.75;;;;;;;;;;5071339;27;93915;-74
2021/12/24 11:52:19;;;;;;;34.05;13.38;;;;;;;;;;5078389;27;92725;-74
2021/12/24 11:54:45;;;;;;;35.47;11.45;;;;;;;;;;5080929;27;93975;-73
2021/12/24 11:57:22;;;;;;;30.25;11.75;;;;;;;;;;5075185;27;93644;-74
2021/12/24 11:59:49;;;;;;;36.05;13.10;;;;;;;;;;5057924;27;92269;-73
2021/12/24 12:02:43;;;;;;;37.40;12.45;;;;;;;;;;5068194;27;93548;-74
2021/12/24 12:05:14;;;;;;;31.92;10.77;;;;;;;;;;5074676;27;93529;-74
2021/12/24 12:07:43;;;;;;;34.95;11.77;;;;;;;;;;5078250;27;92292;-74
2021/12/24 12:10:09;;;;;;;31.73;10.57;;;;;;;;;;5058835;27;94677;-74
2021/12/24 12:12:40;;;;;;;31.92;10.38;;;;;;;;;;5065788;27;93740;-74
2021/12/24 12:15:21;;;;;;;30.40;10.18;;;;;;;;;;5068057;27;92195;-74
2021/12/24 12:17:52;;;;;;;37.88;11.07;;;;;;;;;;5080827;27;92750;-74
2021/12/24 12:20:43;;;;;;;21.33;9.30;;;;;;;;;;5078217;27;92868;-74
2021/12/24 12:23:16;;;;;;;34.42;9.27;;;;;;;;;;5078858;27;93564;-74
2021/12/24 12:25:42;;;;;;;28.80;9.52;;;;;;;;;;5078742;27;93651;-74
2021/12/24 12:28:12;;;;;;;29.27;9.80;;;;;;;;;;5078633;27;91556;-74
2021/12/24 12:30:42;;;;;;;28.33;9.55;;;;;;;;;;5078657;27;93094;-74
2021/12/24 12:33:13;;;;;;;33.47;9.23;;;;;;;;;;5078613;27;93639;-74
2021/12/24 12:35:44;;;;;;;22.07;8.47;;;;;;;;;;5077156;27;94812;-74
2021/12/24 12:38:29;;;;;;;22.90;8.88;;;;;;;;;;5081536;27;95861;-74
2021/12/24 12:41:14;;;;;;;25.38;8.80;;;;;;;;;;5078590;27;92290;-74
2021/12/24 12:43:40;;;;;;;26.92;8.60;;;;;;;;;;5078410;27;93368;-75
2021/12/24 12:46:07;;;;;;;30.15;9.07;;;;;;;;;;5078436;27;93661;-75
2021/12/24 12:48:48;;;;;;;29.50;9.25;;;;;;;;;;5073999;27;92153;-74
2021/12/24 12:51:14;;;;;;;22.25;8.35;;;;;;;;;;5056742;27;92448;-74
2021/12/24 12:53:42;;;;;;;22.75;9.35;;;;;;;;;;5058145;27;92475;-77
2021/12/24 12:56:16;;;;;;;21.88;7.80;;;;;;;;;;5057986;27;92318;-77
2021/12/24 12:59:01;;;;;;;26.95;8.23;;;;;;;;;;5057835;27;93483;-75
2021/12/24 13:01:28;;;;;;;21.17;7.50;;;;;;;;;;5058981;27;96057;-73
2021/12/24 13:03:57;;;;;;;30.25;7.53;;;;;;;;;;5057777;27;95848;-75
2021/12/24 13:06:36;;;;;;;26.38;7.25;;;;;;;;;;5057548;27;92994;-74
2021/12/24 13:09:04;;;;;;;25.52;7.38;;;;;;;;;;5057622;27;92355;-74
2021/12/24 13:11:34;;;;;;;19.67;6.25;;;;;;;;;;5057786;27;93125;-74
2021/12/24 13:14:02;;;;;;;23.55;5.80;;;;;;;;;;5056885;27;93803;-74
2021/12/24 13:16:34;;;;;;;23.38;5.63;;;;;;;;;;5057648;27;92225;-74
2021/12/24 13:24:46;;;;;;;18.75;5.07;;;;;;;;;;5060565;27;92309;-74
2021/12/24 13:27:12;;;;;;;18.60;5.15;;;;;;;;;;5055869;27;95344;-75
2021/12/24 13:29:39;;;;;;;17.50;5.40;;;;;;;;;;5057425;27;92310;-75
2021/12/24 13:32:05;;;;;;;15.60;5.47;;;;;;;;;;5065312;27;92598;-73
2021/12/24 13:34:32;;;;;;;15.25;5.38;;;;;;;;;;5065969;27;93299;-74
2021/12/24 13:37:02;;;;;;;14.88;5.47;;;;;;;;;;5066314;27;92293;-74
2021/12/24 13:39:28;;;;;;;15.80;5.63;;;;;;;;;;5068138;27;93555;-74
2021/12/24 13:42:07;;;;;;;9.68;5.60;;;;;;;;;;5069320;27;93664;-75
2021/12/24 13:44:34;;;;;;;18.35;5.70;;;;;;;;;;5077861;27;91568;-74
2021/12/24 13:47:11;;;;;;;21.67;7.57;;;;;;;;;;5080530;27;92677;-75
2021/12/24 13:55:21;;;;;;;15.15;7.40;;;;;;;;;;5056009;27;94060;-75
2021/12/24 13:57:55;;;;;;;10.57;6.38;;;;;;;;;;5056673;27;92467;-77
2021/12/24 14:00:23;;;;;;;14.18;6.35;;;;;;;;;;5039371;27;96484;-74
2021/12/24 14:02:50;;;;;;;12.95;7.15;;;;;;;;;;5057527;27;93502;-74
2021/12/24 14:05:18;;;;;;;13.23;6.28;;;;;;;;;;5060671;27;92192;-74
2021/12/24 14:07:47;;;;;;;16.90;7.20;;;;;;;;;;5060897;27;93080;-74
2021/12/24 14:10:24;;;;;;;16.08;6.10;;;;;;;;;;5063697;27;92429;-75
2021/12/24 14:12:51;;;;;;;14.57;6.80;;;;;;;;;;5060361;27;92732;-75
2021/12/24 14:15:22;;;;;;;14.48;6.30;;;;;;;;;;5060359;27;93946;-75
2021/12/24 14:18:17;;;;;;;;;;;;;;;;;;5059305;27;95105;-75
2021/12/24 14:21:00;;;;;;;10.13;5.65;;;;;;;;;;5059187;27;123660;-75
2021/12/24 14:23:24;;;;;;;12.90;5.22;;;;;;;;;;5059983;27;92627;-74
2021/12/24 14:25:57;;;;;;;8.85;6.75;;;;;;;;;;5060432;27;92407;-75
2021/12/24 14:28:25;;;;;;;8.95;6.35;;;;;;;;;;5076901;27;93353;-83
2021/12/24 14:31:01;;;;;;;9.98;5.05;;;;;;;;;;5059934;27;94050;-75
2021/12/24 14:33:27;;;;;;;5.05;3.85;;;;;;;;;;5077889;27;92372;-77
2021/12/24 14:35:56;;;;;;;5.30;3.58;;;;;;;;;;5068041;27;92970;-76
2021/12/24 14:38:23;;;;;;;2.00;1.90;;;;;;;;;;5069308;27;92320;-74
2021/12/24 14:40:58;;;;;;;2.97;2.15;;;;;;;;;;5069999;27;93488;-74
2021/12/24 14:43:25;;;;;;;3.35;2.05;;;;;;;;;;5068609;27;96018;-76
2021/12/24 14:45:52;;;;;;;2.40;2.17;;;;;;;;;;5067676;27;92441;-76
2021/12/24 14:48:24;;;;;;;2.47;2.38;;;;;;;;;;5071694;27;93471;-74
2021/12/24 14:50:59;;;;;;;2.70;2.50;;;;;;;;;;5068444;27;93401;-74
2021/12/24 14:53:36;;;;;;;3.30;2.13;;;;;;;;;;5072897;27;92409;-74
2021/12/24 14:56:13;;;;;;;2.60;2.40;;;;;;;;;;5061424;27;93276;-74
2021/12/24 14:58:44;;;;;;;2.80;2.70;;;;;;;;;;5059674;27;92272;-73
2021/12/24 15:01:10;;;;;;;2.97;2.77;;;;;;;;;;5060478;27;93778;-73
2021/12/24 15:03:39;;;;;;;3.33;2.28;;;;;;;;;;5059620;27;93582;-73
2021/12/24 15:06:25;;;;;;;4.38;3.20;;;;;;;;;;5059506;27;93012;-74
2021/12/24 15:08:54;;;;;;;3.42;3.08;;;;;;;;;;5057735;27;94716;-73
2021/12/24 15:11:21;;;;;;;3.25;3.05;;;;;;;;;;5059592;27;93715;-74
2021/12/24 15:13:53;;;;;;;2.75;2.55;;;;;;;;;;5058895;27;92298;-74
2021/12/24 15:16:22;;;;;;;4.72;3.47;;;;;;;;;;5061804;27;92261;-73
2021/12/24 15:18:50;;;;;;;3.38;3.17;;;;;;;;;;5059270;27;92397;-74
2021/12/24 15:21:18;;;;;;;4.18;3.20;;;;;;;;;;5059034;27;93668;-74
2021/12/24 15:23:45;;;;;;;2.78;2.58;;;;;;;;;;5059122;27;93548;-76
2021/12/24 15:26:12;;;;;;;3.03;2.70;;;;;;;;;;5059897;27;91586;-73
2021/12/24 15:28:40;;;;;;;2.60;2.50;;;;;;;;;;5053496;27;93360;-73
2021/12/24 15:31:06;;;;;;;2.75;2.55;;;;;;;;;;5079115;27;92925;-72
2021/12/24 15:33:32;;;;;;;2.45;2.30;;;;;;;;;;5077662;27;94599;-73
2021/12/24 15:35:59;;;;;;;2.90;2.80;;;;;;;;;;5057009;27;96011;-72
2021/12/24 15:38:25;;;;;;;3.33;3.13;;;;;;;;;;5060676;27;93789;-73
2021/12/24 15:40:52;;;;;;;3.20;3.00;;;;;;;;;;5057318;27;93430;-76
2021/12/24 15:43:19;;;;;;;3.65;3.45;;;;;;;;;;5064748;27;93989;-74
2021/12/24 15:45:46;;;;;;;3.33;3.13;;;;;;;;;;5089236;27;92238;-73
2021/12/24 15:48:13;;;;;;;3.88;3.55;;;;;;;;;;5081506;27;93477;-73
2021/12/24 15:50:39;;;;;;;3.42;3.08;;;;;;;;;;5052209;27;93065;-74
2021/12/24 15:53:06;;;;;;;3.22;2.97;;;;;;;;;;5073216;27;93539;-74
2021/12/24 15:55:32;;;;;;;3.17;2.97;;;;;;;;;;5073556;27;93632;-74
2021/12/24 15:58:03;;;;;;;3.17;2.97;;;;;;;;;;5065074;27;95996;-73
2021/12/24 16:00:30;;;;;;;3.90;3.60;;;;;;;;;;5072368;27;92307;-72
2021/12/24 16:02:56;;;;;;;3.90;3.60;;;;;;;;;;5068633;27;92291;-74
2021/12/24 16:05:23;;;;;;;3.78;3.58;;;;;;;;;;5071072;27;93396;-75
2021/12/24 16:07:49;;;;;;;3.92;3.70;;;;;;;;;;5067806;27;93201;-76
2021/12/24 16:10:16;;;;;;;4.40;4.10;;;;;;;;;;5066982;27;92880;-73
2021/12/24 16:12:42;;;;;;;4.70;4.28;;;;;;;;;;5047997;27;92409;-75
2021/12/24 16:15:11;;;;;;;4.43;4.13;;;;;;;;;;5066893;27;93702;-73
2021/12/24 16:17:38;;;;;;;5.15;4.75;;;;;;;;;;5076416;27;93754;-74
2021/12/24 16:20:08;;;;;;;5.13;4.82;;;;;;;;;;5057833;27;92268;-73
2021/12/24 16:22:34;;;;;;;6.50;5.88;;;;;;;;;;5059748;27;94871;-74
2021/12/24 16:25:00;;;;;;;6.78;6.18;;;;;;;;;;5081385;27;92745;-72